createdAt,value
2018-07-21T00:00:46.375Z,1028.18
2018-07-21T00:01:46.372Z,1028.16
2018-07-21T00:02:46.370Z,1028.19
2018-07-21T00:03:46.362Z,1028.15
2018-07-21T00:04:46.360Z,1028.17
2018-07-21T00:05:46.353Z,1028.16
2018-07-21T00:06:46.351Z,1028.17
2018-07-21T00:07:46.345Z,1028.17
2018-07-21T00:08:46.345Z,1028.16
2018-07-21T00:09:46.336Z,1028.15
2018-07-21T00:10:46.331Z,1028.18
2018-07-21T00:11:46.326Z,1028.17
2018-07-21T00:12:46.323Z,1028.18
2018-07-21T00:13:46.317Z,1028.19
2018-07-21T00:14:46.314Z,1028.16
2018-07-21T00:15:46.308Z,1028.16
2018-07-21T00:16:46.304Z,1028.12
2018-07-21T00:17:46.300Z,1028.11
2018-07-21T00:18:46.296Z,1028.1
2018-07-21T00:19:46.290Z,1028.08
2018-07-21T00:20:46.286Z,1028.12
2018-07-21T00:21:46.282Z,1028.12
2018-07-21T00:22:46.276Z,1028.1
2018-07-21T00:23:46.272Z,1028.14
2018-07-21T00:24:46.267Z,1028.15
2018-07-21T00:25:46.264Z,1028.14
2018-07-21T00:26:46.260Z,1028.1
2018-07-21T00:27:46.254Z,1028.15
2018-07-21T00:28:46.251Z,1028.17
2018-07-21T00:29:46.247Z,1028.14
2018-07-21T00:30:46.240Z,1028.14
2018-07-21T00:31:46.235Z,1028.12
2018-07-21T00:32:46.236Z,1028.16
2018-07-21T00:33:46.226Z,1028.15
2018-07-21T00:34:46.221Z,1028.11
2018-07-21T00:35:46.218Z,1028.14
2018-07-21T00:36:46.215Z,1028.12
2018-07-21T00:37:46.208Z,1028.13
2018-07-21T00:38:46.203Z,1028.13
2018-07-21T00:39:46.198Z,1028.17
2018-07-21T00:40:46.195Z,1028.12
2018-07-21T00:41:46.189Z,1028.13
2018-07-21T00:42:46.184Z,1028.12
2018-07-21T00:43:46.181Z,1028.13
2018-07-21T00:44:46.175Z,1028.16
2018-07-21T00:45:46.171Z,1028.11
2018-07-21T00:46:46.167Z,1028.1
2018-07-21T00:47:46.164Z,1028.08
2018-07-21T00:48:46.157Z,1028.13
2018-07-21T00:49:46.152Z,1028.12
2018-07-21T00:50:46.150Z,1028.09
2018-07-21T00:51:46.144Z,1028.1
2018-07-21T00:52:46.138Z,1028.1
2018-07-21T00:53:46.134Z,1028.07
2018-07-21T00:54:46.130Z,1028.01
2018-07-21T00:55:46.124Z,1028.02
2018-07-21T00:56:46.120Z,1028.02
2018-07-21T00:57:46.116Z,1027.99
2018-07-21T00:58:46.112Z,1027.96
2018-07-21T00:59:46.107Z,1027.96
2018-07-21T01:00:46.103Z,1027.97
2018-07-21T01:01:46.098Z,1027.97
2018-07-21T01:02:46.107Z,1027.96
2018-07-21T01:03:46.089Z,1027.98
2018-07-21T01:04:46.087Z,1027.9
2018-07-21T01:05:46.082Z,1027.94
2018-07-21T01:06:46.074Z,1027.95
2018-07-21T01:07:46.070Z,1027.91
2018-07-21T01:08:46.066Z,1027.95
2018-07-21T01:09:46.062Z,1027.96
2018-07-21T01:10:46.057Z,1027.91
2018-07-21T01:11:46.052Z,1027.94
2018-07-21T01:12:46.048Z,1027.92
2018-07-21T01:13:46.053Z,1027.88
2018-07-21T01:14:46.038Z,1027.89
2018-07-21T01:15:46.035Z,1027.87
2018-07-21T01:16:46.030Z,1027.83
2018-07-21T01:17:46.024Z,1027.8
2018-07-21T01:18:46.020Z,1027.82
2018-07-21T01:19:46.016Z,1027.79
2018-07-21T01:20:46.012Z,1027.75
2018-07-21T01:21:46.008Z,1027.75
2018-07-21T01:22:46.004Z,1027.75
2018-07-21T01:23:45.997Z,1027.77
2018-07-21T01:24:45.994Z,1027.77
2018-07-21T01:25:45.989Z,1027.8
2018-07-21T01:26:45.986Z,1027.79
2018-07-21T01:27:45.980Z,1027.77
2018-07-21T01:28:45.974Z,1027.77
2018-07-21T01:29:45.971Z,1027.76
2018-07-21T01:30:46.216Z,1027.76
2018-07-21T01:31:45.964Z,1027.75
2018-07-21T01:32:45.967Z,1027.74
2018-07-21T01:33:45.954Z,1027.74
2018-07-21T01:34:45.948Z,1027.74
2018-07-21T01:35:45.943Z,1027.72
2018-07-21T01:36:45.939Z,1027.75
2018-07-21T01:37:45.941Z,1027.75
2018-07-21T01:38:45.930Z,1027.78
2018-07-21T01:39:45.925Z,1027.79
2018-07-21T01:40:45.925Z,1027.79
2018-07-21T01:41:45.916Z,1027.79
2018-07-21T01:42:45.912Z,1027.77
2018-07-21T01:43:45.909Z,1027.76
2018-07-21T01:44:45.902Z,1027.75
2018-07-21T01:45:45.901Z,1027.76
2018-07-21T01:46:45.895Z,1027.78
2018-07-21T01:47:45.894Z,1027.79
2018-07-21T01:48:45.884Z,1027.77
2018-07-21T01:49:45.884Z,1027.81
2018-07-21T01:50:45.873Z,1027.79
2018-07-21T01:51:45.869Z,1027.82
2018-07-21T01:52:45.865Z,1027.84
2018-07-21T01:53:45.860Z,1027.82
2018-07-21T01:54:45.855Z,1027.86
2018-07-21T01:55:45.851Z,1027.85
2018-07-21T01:56:45.851Z,1027.85
2018-07-21T01:57:45.840Z,1027.84
2018-07-21T01:58:45.839Z,1027.86
2018-07-21T01:59:45.833Z,1027.88
2018-07-21T02:00:45.827Z,1027.89
2018-07-21T02:01:45.822Z,1027.9
2018-07-21T02:02:45.818Z,1027.91
2018-07-21T02:03:45.813Z,1027.93
2018-07-21T02:04:45.809Z,1027.94
2018-07-21T02:05:45.803Z,1027.93
2018-07-21T02:06:45.799Z,1027.91
2018-07-21T02:07:45.795Z,1027.92
2018-07-21T02:08:45.790Z,1027.92
2018-07-21T02:09:45.785Z,1027.95
2018-07-21T02:10:45.780Z,1027.98
2018-07-21T02:11:45.776Z,1027.95
2018-07-21T02:12:45.811Z,1027.97
2018-07-21T02:13:45.782Z,1027.99
2018-07-21T02:14:45.761Z,1027.97
2018-07-21T02:15:45.760Z,1027.95
2018-07-21T02:16:45.751Z,1028
2018-07-21T02:17:45.746Z,1028.01
2018-07-21T02:18:45.742Z,1027.98
2018-07-21T02:19:45.737Z,1027.99
2018-07-21T02:20:45.733Z,1027.97
2018-07-21T02:21:45.727Z,1028.03
2018-07-21T02:22:45.722Z,1028.05
2018-07-21T02:23:45.807Z,1028.03
2018-07-21T02:24:45.712Z,1028.02
2018-07-21T02:25:45.708Z,1028.02
2018-07-21T02:26:45.703Z,1028.03
2018-07-21T02:27:45.699Z,1028.06
2018-07-21T02:28:45.697Z,1028.02
2018-07-21T02:29:45.692Z,1027.99
2018-07-21T02:30:45.684Z,1027.95
2018-07-21T02:31:45.680Z,1027.95
2018-07-21T02:32:45.674Z,1027.89
2018-07-21T02:33:45.669Z,1027.9
2018-07-21T02:34:45.665Z,1027.9
2018-07-21T02:35:45.661Z,1027.88
2018-07-21T02:36:45.657Z,1027.91
2018-07-21T02:37:45.656Z,1027.92
2018-07-21T02:38:45.645Z,1027.93
2018-07-21T02:39:45.646Z,1027.98
2018-07-21T02:40:45.641Z,1028.01
2018-07-21T02:41:45.630Z,1028.04
2018-07-21T02:42:45.625Z,1028.06
2018-07-21T02:43:45.621Z,1028.09
2018-07-21T02:44:45.616Z,1028.06
2018-07-21T02:45:45.661Z,1028.1
2018-07-21T02:46:45.605Z,1028.11
2018-07-21T02:47:45.603Z,1028.09
2018-07-21T02:48:45.601Z,1028.08
2018-07-21T02:49:45.592Z,1028.06
2018-07-21T02:50:45.588Z,1028.05
2018-07-21T02:51:45.591Z,1028.06
2018-07-21T02:52:45.577Z,1028.01
2018-07-21T02:53:45.571Z,1028.03
2018-07-21T02:54:45.570Z,1028.04
2018-07-21T02:55:45.561Z,1028.07
2018-07-21T02:56:45.556Z,1028.08
2018-07-21T02:57:45.555Z,1028.13
2018-07-21T02:58:45.546Z,1028.09
2018-07-21T02:59:45.542Z,1028.11
2018-07-21T03:00:45.537Z,1028.15
2018-07-21T03:01:45.535Z,1028.16
2018-07-21T03:02:45.527Z,1028.14
2018-07-21T03:03:45.521Z,1028.13
2018-07-21T03:04:45.520Z,1028.14
2018-07-21T03:05:45.542Z,1028.12
2018-07-21T03:06:45.513Z,1028.1
2018-07-21T03:07:45.504Z,1028.12
2018-07-21T03:08:45.497Z,1028.11
2018-07-21T03:09:45.498Z,1028.11
2018-07-21T03:10:45.491Z,1028.14
2018-07-21T03:11:45.484Z,1028.11
2018-07-21T03:12:45.478Z,1028.14
2018-07-21T03:13:45.478Z,1028.15
2018-07-21T03:14:45.469Z,1028.11
2018-07-21T03:15:45.471Z,1028.14
2018-07-21T03:16:45.465Z,1028.09
2018-07-21T03:17:45.463Z,1028.13
2018-07-21T03:18:45.449Z,1028.06
2018-07-21T03:19:45.444Z,1028.09
2018-07-21T03:20:45.439Z,1028
2018-07-21T03:21:45.436Z,1028.02
2018-07-21T03:22:45.431Z,1028
2018-07-21T03:23:45.425Z,1027.94
2018-07-21T03:24:45.430Z,1027.96
2018-07-21T03:25:45.415Z,1027.94
2018-07-21T03:26:45.409Z,1027.91
2018-07-21T03:27:45.405Z,1027.92
2018-07-21T03:28:45.400Z,1027.94
2018-07-21T03:29:45.394Z,1027.89
2018-07-21T03:30:45.427Z,1027.86
2018-07-21T03:31:45.394Z,1027.89
2018-07-21T03:32:45.379Z,1027.85
2018-07-21T03:33:45.375Z,1027.86
2018-07-21T03:34:45.370Z,1027.85
2018-07-21T03:35:45.374Z,1027.85
2018-07-21T03:36:45.363Z,1027.8
2018-07-21T03:37:45.357Z,1027.81
2018-07-21T03:38:45.355Z,1027.79
2018-07-21T03:39:45.368Z,1027.75
2018-07-21T03:40:45.344Z,1027.73
2018-07-21T03:41:45.337Z,1027.77
2018-07-21T03:42:45.335Z,1027.75
2018-07-21T03:43:45.328Z,1027.75
2018-07-21T03:44:45.322Z,1027.72
2018-07-21T03:45:45.318Z,1027.7
2018-07-21T03:46:45.316Z,1027.67
2018-07-21T03:47:45.310Z,1027.65
2018-07-21T03:48:45.305Z,1027.61
2018-07-21T03:49:45.299Z,1027.55
2018-07-21T03:50:45.294Z,1027.48
2018-07-21T03:51:45.292Z,1027.44
2018-07-21T03:52:45.287Z,1027.37
2018-07-21T03:53:45.281Z,1027.29
2018-07-21T03:54:45.285Z,1027.25
2018-07-21T03:55:45.272Z,1027.19
2018-07-21T03:56:45.267Z,1027.08
2018-07-21T03:57:45.268Z,1027.03
2018-07-21T03:58:45.260Z,1026.91
2018-07-21T03:59:45.254Z,1026.83
2018-07-21T04:00:45.250Z,1026.73
2018-07-21T04:01:45.251Z,1026.61
2018-07-21T04:02:45.241Z,1026.52
2018-07-21T04:03:45.239Z,1026.45
2018-07-21T04:04:45.235Z,1026.34
2018-07-21T04:05:45.229Z,1026.24
2018-07-21T04:06:45.225Z,1026.13
2018-07-21T04:07:45.230Z,1025.99
2018-07-21T04:08:45.219Z,1025.92
2018-07-21T04:09:45.219Z,1025.83
2018-07-21T04:10:45.211Z,1025.72
2018-07-21T04:11:45.216Z,1025.62
2018-07-21T04:12:45.206Z,1025.52
2018-07-21T04:13:45.202Z,1025.46
2018-07-21T04:14:45.200Z,1025.46
2018-07-21T04:15:45.197Z,1025.41
2018-07-21T04:16:45.199Z,1025.41
2018-07-21T04:17:45.192Z,1025.39
2018-07-21T04:18:45.189Z,1025.42
2018-07-21T04:19:45.193Z,1025.41
2018-07-21T04:20:45.190Z,1025.36
2018-07-21T04:21:45.187Z,1025.41
2018-07-21T04:22:45.183Z,1025.39
2018-07-21T04:23:45.178Z,1025.35
2018-07-21T04:24:45.186Z,1025.34
2018-07-21T04:25:45.174Z,1025.25
2018-07-21T04:26:45.171Z,1025.18
2018-07-21T04:27:45.169Z,1025.14
2018-07-21T04:28:45.167Z,1025.06
2018-07-21T04:29:45.165Z,1025.06
2018-07-21T04:30:45.172Z,1025.07
2018-07-21T04:31:45.161Z,1025.08
2018-07-21T04:32:45.160Z,1025.13
2018-07-21T04:33:45.163Z,1025.1
2018-07-21T04:34:45.157Z,1025.03
2018-07-21T04:35:45.155Z,1025.02
2018-07-21T04:36:45.155Z,1024.97
2018-07-21T04:37:45.154Z,1025
2018-07-21T04:38:45.156Z,1025
2018-07-21T04:39:45.152Z,1024.99
2018-07-21T04:40:45.149Z,1024.94
2018-07-21T04:41:45.149Z,1024.87
2018-07-21T04:42:45.147Z,1024.82
2018-07-21T04:43:45.147Z,1024.81
2018-07-21T04:44:45.146Z,1024.82
2018-07-21T04:45:45.147Z,1024.76
2018-07-21T04:46:45.145Z,1024.66
2018-07-21T04:47:45.149Z,1024.49
2018-07-21T04:48:45.145Z,1024.37
2018-07-21T04:49:45.143Z,1024.17
2018-07-21T04:50:45.142Z,1024.07
2018-07-21T04:51:45.143Z,1023.89
2018-07-21T04:52:45.142Z,1023.71
2018-07-21T04:53:45.141Z,1023.52
2018-07-21T04:54:45.143Z,1023.36
2018-07-21T04:55:45.143Z,1023.26
2018-07-21T04:56:45.141Z,1023.07
2018-07-21T04:57:45.145Z,1022.95
2018-07-21T04:58:45.143Z,1022.85
2018-07-21T04:59:45.145Z,1022.72
2018-07-21T05:00:45.216Z,1022.63
2018-07-21T05:01:45.148Z,1022.55
2018-07-21T05:02:45.149Z,1022.48
2018-07-21T05:03:45.151Z,1022.43
2018-07-21T05:04:45.157Z,1022.36
2018-07-21T05:05:45.156Z,1022.32
2018-07-21T05:06:45.159Z,1022.26
2018-07-21T05:07:45.161Z,1022.18
2018-07-21T05:08:45.416Z,1022.15
2018-07-21T05:09:45.178Z,1022.09
2018-07-21T05:10:45.172Z,1022.01
2018-07-21T05:11:45.187Z,1021.9
2018-07-21T05:12:45.180Z,1021.83
2018-07-21T05:13:45.184Z,1021.74
2018-07-21T05:14:45.193Z,1021.7
2018-07-21T05:15:45.193Z,1021.64
2018-07-21T05:16:45.200Z,1021.61
2018-07-21T05:17:45.204Z,1021.6
2018-07-21T05:18:45.211Z,1021.54
2018-07-21T05:19:45.218Z,1021.5
2018-07-21T05:20:45.220Z,1021.36
2018-07-21T05:21:45.230Z,1021.3
2018-07-21T05:22:45.236Z,1021.24
2018-07-21T05:23:45.239Z,1021.27
2018-07-21T05:24:45.246Z,1021.29
2018-07-21T05:25:45.252Z,1021.2
2018-07-21T05:26:45.262Z,1021.34
2018-07-21T05:27:45.266Z,1021.64
2018-07-21T05:28:45.272Z,1021.64
2018-07-21T05:29:45.279Z,1021.58
2018-07-21T05:30:45.288Z,1021.48
2018-07-21T05:31:45.296Z,1021.5
2018-07-21T05:32:45.301Z,1021.42
2018-07-21T05:33:45.307Z,1021.43
2018-07-21T05:34:45.314Z,1021.42
2018-07-21T05:35:45.324Z,1021.39
2018-07-21T05:36:45.330Z,1021.37
2018-07-21T05:37:45.335Z,1021.28
2018-07-21T05:38:45.343Z,1021.32
2018-07-21T05:39:45.355Z,1021.31
2018-07-21T05:40:45.365Z,1021.33
2018-07-21T05:41:45.365Z,1021.43
2018-07-21T05:42:45.373Z,1021.4
2018-07-21T05:43:45.386Z,1021.38
2018-07-21T05:44:45.395Z,1021.27
2018-07-21T05:45:45.396Z,1021.18
2018-07-21T05:46:45.406Z,1021.05
2018-07-21T05:47:45.413Z,1020.94
2018-07-21T05:48:45.422Z,1020.85
2018-07-21T05:49:45.435Z,1020.81
2018-07-21T05:50:45.446Z,1020.71
2018-07-21T05:51:45.445Z,1020.65
2018-07-21T05:52:45.456Z,1020.58
2018-07-21T05:53:45.462Z,1020.39
2018-07-21T05:54:45.474Z,1020.33
2018-07-21T05:55:45.478Z,1020.34
2018-07-21T05:56:45.489Z,1020.33
2018-07-21T05:57:45.496Z,1020.3
2018-07-21T05:58:45.506Z,1020.28
2018-07-21T05:59:45.514Z,1020.24
2018-07-21T06:00:45.524Z,1020.3
2018-07-21T06:01:45.533Z,1020.24
2018-07-21T06:02:45.587Z,1020.21
2018-07-21T06:03:45.554Z,1020.21
2018-07-21T06:04:45.561Z,1020.3
2018-07-21T06:05:45.571Z,1020.26
2018-07-21T06:06:45.583Z,1020.27
2018-07-21T06:07:45.595Z,1020.28
2018-07-21T06:08:45.616Z,1020.21
2018-07-21T06:09:45.609Z,1020.25
2018-07-21T06:10:45.627Z,1020.14
2018-07-21T06:11:45.629Z,1020.23
2018-07-21T06:12:45.640Z,1020.16
2018-07-21T06:13:45.649Z,1020.11
2018-07-21T06:14:45.659Z,1020.06
2018-07-21T06:15:45.669Z,1020.02
2018-07-21T06:16:45.679Z,1019.9
2018-07-21T06:17:45.689Z,1019.78
2018-07-21T06:18:45.799Z,1019.64
2018-07-21T06:19:45.716Z,1019.45
2018-07-21T06:20:45.721Z,1019.33
2018-07-21T06:21:45.732Z,1019.19
2018-07-21T06:22:45.743Z,1019.09
2018-07-21T06:23:45.767Z,1018.99
2018-07-21T06:24:45.764Z,1019.07
2018-07-21T06:25:45.776Z,1019.02
2018-07-21T06:26:45.788Z,1018.97
2018-07-21T06:27:45.801Z,1018.95
2018-07-21T06:28:45.811Z,1018.9
2018-07-21T06:29:45.823Z,1018.83
2018-07-21T06:30:45.835Z,1018.78
2018-07-21T06:31:45.846Z,1018.73
2018-07-21T06:32:45.916Z,1018.63
2018-07-21T06:33:45.871Z,1018.59
2018-07-21T06:34:45.884Z,1018.69
2018-07-21T06:35:45.895Z,1018.73
2018-07-21T06:36:45.908Z,1018.79
2018-07-21T06:37:45.921Z,1018.84
2018-07-21T06:38:45.934Z,1018.84
2018-07-21T06:39:45.950Z,1018.8
2018-07-21T06:40:45.960Z,1018.7
2018-07-21T06:41:45.973Z,1018.77
2018-07-21T06:42:45.985Z,1018.73
2018-07-21T06:43:46.024Z,1018.71
2018-07-21T06:44:46.013Z,1018.67
2018-07-21T06:45:46.025Z,1018.72
2018-07-21T06:46:46.037Z,1018.67
2018-07-21T06:47:46.052Z,1018.64
2018-07-21T06:48:46.065Z,1018.63
2018-07-21T06:49:46.080Z,1018.64
2018-07-21T06:50:46.093Z,1018.59
2018-07-21T06:51:46.104Z,1018.48
2018-07-21T06:52:46.118Z,1018.41
2018-07-21T06:53:46.131Z,1018.34
2018-07-21T06:54:46.145Z,1018.31
2018-07-21T06:55:46.158Z,1018.3
2018-07-21T06:56:46.173Z,1018.27
2018-07-21T06:57:46.189Z,1018.22
2018-07-21T06:58:46.200Z,1018.28
2018-07-21T06:59:46.214Z,1018.35
2018-07-21T07:00:46.227Z,1018.44
2018-07-21T07:01:46.241Z,1018.49
2018-07-21T07:02:46.254Z,1018.45
2018-07-21T07:03:46.268Z,1018.45
2018-07-21T07:04:46.371Z,1018.39
2018-07-21T07:05:46.295Z,1018.4
2018-07-21T07:06:46.309Z,1018.28
2018-07-21T07:07:46.323Z,1018.24
2018-07-21T07:08:46.336Z,1018.36
2018-07-21T07:09:46.350Z,1018.22
2018-07-21T07:10:46.365Z,1018.07
2018-07-21T07:11:46.378Z,1018.11
2018-07-21T07:12:46.391Z,1018.01
2018-07-21T07:13:46.405Z,1018.01
2018-07-21T07:14:46.420Z,1018
2018-07-21T07:15:46.434Z,1018.02
2018-07-21T07:16:46.448Z,1018.7
2018-07-21T07:17:46.463Z,1019.34
2018-07-21T07:18:46.477Z,1019.76
2018-07-21T07:19:46.489Z,1020.19
2018-07-21T07:20:46.503Z,1020.45
2018-07-21T07:21:46.516Z,1020.6
2018-07-21T07:22:46.530Z,1020.83
2018-07-21T07:23:46.541Z,1021.03
2018-07-21T07:24:46.553Z,1021.22
2018-07-21T07:25:46.566Z,1021.27
2018-07-21T07:26:46.577Z,1021.16
2018-07-21T07:27:46.590Z,1021.1
2018-07-21T07:28:46.600Z,1020.98
2018-07-21T07:29:46.621Z,1021.01
2018-07-21T07:30:46.622Z,1021.22
2018-07-21T07:31:46.634Z,1021.37
2018-07-21T07:32:46.644Z,1021.49
2018-07-21T07:33:46.655Z,1021.67
2018-07-21T07:34:46.665Z,1021.82
2018-07-21T07:35:46.676Z,1021.97
2018-07-21T07:36:46.686Z,1022.01
2018-07-21T07:37:46.695Z,1022.04
2018-07-21T07:38:46.705Z,1022.14
2018-07-21T07:39:46.719Z,1022.22
2018-07-21T07:40:46.725Z,1022.09
2018-07-21T07:41:46.733Z,1021.65
2018-07-21T07:42:46.743Z,1021.52
2018-07-21T07:43:46.752Z,1021.32
2018-07-21T07:44:46.770Z,1020.79
2018-07-21T07:45:46.771Z,1020.28
2018-07-21T07:46:46.786Z,1020.26
2018-07-21T07:47:46.791Z,1019.89
2018-07-21T07:48:46.801Z,1019.77
2018-07-21T07:49:46.810Z,1020.06
2018-07-21T07:50:46.819Z,1020.67
2018-07-21T07:51:46.830Z,1021.13
2018-07-21T07:52:46.838Z,1021.42
2018-07-21T07:53:46.849Z,1021.27
2018-07-21T07:54:46.859Z,1020.84
2018-07-21T07:55:46.869Z,1020.74
2018-07-21T07:56:46.880Z,1020.34
2018-07-21T07:57:46.890Z,1019.97
2018-07-21T07:58:46.907Z,1019.72
2018-07-21T07:59:46.915Z,1019.51
2018-07-21T08:00:46.919Z,1019.32
2018-07-21T08:01:46.930Z,1019.2
2018-07-21T08:02:46.941Z,1019.01
2018-07-21T08:03:46.986Z,1018.95
2018-07-21T08:04:46.962Z,1018.87
2018-07-21T08:05:46.974Z,1018.74
2018-07-21T08:06:46.984Z,1018.59
2018-07-21T08:07:46.996Z,1018.47
2018-07-21T08:08:47.009Z,1018.4
2018-07-21T08:09:47.021Z,1018.39
2018-07-21T08:10:47.032Z,1018.28
2018-07-21T08:11:47.047Z,1018.19
2018-07-21T08:12:47.059Z,1018.07
2018-07-21T08:13:47.072Z,1018.05
2018-07-21T08:14:47.099Z,1017.96
2018-07-21T08:15:47.099Z,1017.89
2018-07-21T08:16:47.114Z,1017.71
2018-07-21T08:17:47.127Z,1017.52
2018-07-21T08:18:47.141Z,1017.3
2018-07-21T08:19:47.155Z,1017.04
2018-07-21T08:20:47.171Z,1016.92
2018-07-21T08:21:47.185Z,1016.75
2018-07-21T08:22:47.198Z,1016.69
2018-07-21T08:23:47.217Z,1016.77
2018-07-21T08:24:47.229Z,1016.77
2018-07-21T08:25:47.244Z,1016.99
2018-07-21T08:26:47.259Z,1017.23
2018-07-21T08:27:47.274Z,1017.56
2018-07-21T08:28:47.287Z,1017.81
2018-07-21T08:29:47.303Z,1017.88
2018-07-21T08:30:47.318Z,1018.1
2018-07-21T08:31:47.335Z,1018.08
2018-07-21T08:32:47.350Z,1018.12
2018-07-21T08:33:47.363Z,1018.11
2018-07-21T08:34:47.377Z,1018.1
2018-07-21T08:35:47.392Z,1018.04
2018-07-21T08:36:47.409Z,1018.16
2018-07-21T08:37:47.420Z,1018.15
2018-07-21T08:38:47.435Z,1018.13
2018-07-21T08:39:47.449Z,1018.11
2018-07-21T08:40:47.463Z,1018.02
2018-07-21T08:41:47.478Z,1017.92
2018-07-21T08:42:47.493Z,1017.9
2018-07-21T08:43:47.508Z,1017.89
2018-07-21T08:44:47.519Z,1017.9
2018-07-21T08:45:47.535Z,1018.01
2018-07-21T08:46:47.548Z,1018.05
2018-07-21T08:47:47.561Z,1018.01
2018-07-21T08:48:47.576Z,1018.01
2018-07-21T08:49:47.642Z,1018.03
2018-07-21T08:50:47.607Z,1017.99
2018-07-21T08:51:47.617Z,1018
2018-07-21T08:52:47.632Z,1018.04
2018-07-21T08:53:47.645Z,1018.14
2018-07-21T08:54:47.658Z,1018.52
2018-07-21T08:55:47.744Z,1019.03
2018-07-21T08:56:47.686Z,1019.71
2018-07-21T08:57:47.699Z,1020.36
2018-07-21T08:58:47.711Z,1020.91
2018-07-21T08:59:47.725Z,1021.21
2018-07-21T09:00:47.737Z,1021.59
2018-07-21T09:01:47.752Z,1021.9
2018-07-21T09:02:47.761Z,1022.07
2018-07-21T09:03:47.772Z,1022.22
2018-07-21T09:04:47.783Z,1022.35
2018-07-21T09:05:47.836Z,1022.54
2018-07-21T09:06:47.809Z,1022.73
2018-07-21T09:07:47.847Z,1022.97
2018-07-21T09:08:47.824Z,1023.14
2018-07-21T09:09:47.832Z,1023.18
2018-07-21T09:10:47.846Z,1023.39
2018-07-21T09:11:47.853Z,1023.53
2018-07-21T09:12:47.865Z,1023.65
2018-07-21T09:13:47.868Z,1023.65
2018-07-21T09:14:47.876Z,1023.71
2018-07-21T09:15:47.884Z,1023.78
2018-07-21T09:16:47.890Z,1023.84
2018-07-21T09:17:47.901Z,1023.93
2018-07-21T09:18:47.906Z,1023.99
2018-07-21T09:19:47.913Z,1024.08
2018-07-21T09:20:47.918Z,1024.08
2018-07-21T09:21:47.926Z,1024.15
2018-07-21T09:22:47.945Z,1024.16
2018-07-21T09:23:47.938Z,1024.18
2018-07-21T09:24:47.945Z,1024.16
2018-07-21T09:25:47.950Z,1024.19
2018-07-21T09:26:47.956Z,1024.17
2018-07-21T09:27:47.960Z,1024.21
2018-07-21T09:28:47.966Z,1024.25
2018-07-21T09:29:47.972Z,1024.28
2018-07-21T09:30:47.978Z,1024.24
2018-07-21T09:31:47.983Z,1024.24
2018-07-21T09:32:47.988Z,1024.25
2018-07-21T09:33:47.996Z,1024.23
2018-07-21T09:34:48.000Z,1024.23
2018-07-21T09:35:48.003Z,1024.24
2018-07-21T09:36:48.010Z,1024.25
2018-07-21T09:37:48.013Z,1024.23
2018-07-21T09:38:48.017Z,1024.25
2018-07-21T09:39:48.021Z,1024.25
2018-07-21T09:40:48.027Z,1024.24
2018-07-21T09:41:48.029Z,1024.27
2018-07-21T09:42:48.041Z,1024.29
2018-07-21T09:43:48.038Z,1024.25
2018-07-21T09:44:48.049Z,1024.18
2018-07-21T09:45:48.047Z,1024.19
2018-07-21T09:46:48.054Z,1024.15
2018-07-21T09:47:48.056Z,1024.12
2018-07-21T09:48:48.060Z,1024.15
2018-07-21T09:49:48.063Z,1024.1
2018-07-21T09:50:48.068Z,1024.12
2018-07-21T09:51:48.072Z,1024.08
2018-07-21T09:52:48.075Z,1024.02
2018-07-21T09:53:48.081Z,1024.06
2018-07-21T09:54:48.085Z,1024.06
2018-07-21T09:55:48.205Z,1024.05
2018-07-21T09:56:48.092Z,1024.02
2018-07-21T09:57:48.097Z,1024.01
2018-07-21T09:58:48.101Z,1024.02
2018-07-21T09:59:48.106Z,1023.99
2018-07-21T10:00:48.109Z,1023.99
2018-07-21T10:01:48.121Z,1024
2018-07-21T10:02:48.120Z,1023.99
2018-07-21T10:03:48.124Z,1024.1
2018-07-21T10:04:48.126Z,1023.99
2018-07-21T10:05:48.133Z,1023.96
2018-07-21T10:06:48.134Z,1023.96
2018-07-21T10:07:48.138Z,1023.92
2018-07-21T10:08:48.146Z,1024.02
2018-07-21T10:09:48.147Z,1023.99
2018-07-21T10:10:48.158Z,1024.02
2018-07-21T10:11:48.154Z,1024.01
2018-07-21T10:12:48.159Z,1024.01
2018-07-21T10:13:48.164Z,1024
2018-07-21T10:14:48.168Z,1023.96
2018-07-21T10:15:48.172Z,1023.94
2018-07-21T10:16:48.176Z,1023.99
2018-07-21T10:17:48.181Z,1024
2018-07-21T10:18:48.184Z,1024
2018-07-21T10:19:48.189Z,1024.07
2018-07-21T10:20:48.193Z,1024.08
2018-07-21T10:21:48.274Z,1024.07
2018-07-21T10:22:48.202Z,1024.08
2018-07-21T10:23:48.205Z,1024.05
2018-07-21T10:24:48.210Z,1024.11
2018-07-21T10:25:48.214Z,1024.04
2018-07-21T10:26:48.221Z,1024.03
2018-07-21T10:27:48.224Z,1024.03
2018-07-21T10:28:48.228Z,1024.01
2018-07-21T10:29:48.231Z,1023.97
2018-07-21T10:30:48.240Z,1023.92
2018-07-21T10:31:48.239Z,1023.9
2018-07-21T10:32:48.244Z,1023.88
2018-07-21T10:33:48.247Z,1023.84
2018-07-21T10:34:48.252Z,1023.77
2018-07-21T10:35:48.256Z,1023.78
2018-07-21T10:36:48.259Z,1023.79
2018-07-21T10:37:48.265Z,1023.78
2018-07-21T10:38:48.273Z,1023.76
2018-07-21T10:39:48.274Z,1023.7
2018-07-21T10:40:48.277Z,1023.68
2018-07-21T10:41:48.282Z,1023.67
2018-07-21T10:42:48.286Z,1023.74
2018-07-21T10:43:48.291Z,1023.73
2018-07-21T10:44:48.295Z,1023.72
2018-07-21T10:45:48.299Z,1023.77
2018-07-21T10:46:48.305Z,1023.79
2018-07-21T10:47:48.307Z,1023.8
2018-07-21T10:48:48.312Z,1023.77
2018-07-21T10:49:48.317Z,1023.9
2018-07-21T10:50:48.604Z,1023.84
2018-07-21T10:51:48.324Z,1023.89
2018-07-21T10:52:48.329Z,1023.79
2018-07-21T10:53:48.333Z,1023.75
2018-07-21T10:54:48.339Z,1023.78
2018-07-21T10:55:48.341Z,1023.79
2018-07-21T10:56:48.346Z,1023.71
2018-07-21T10:57:48.352Z,1023.75
2018-07-21T10:58:48.354Z,1023.76
2018-07-21T10:59:48.359Z,1023.77
2018-07-21T11:00:48.363Z,1023.73
2018-07-21T11:01:48.367Z,1023.77
2018-07-21T11:02:48.371Z,1023.76
2018-07-21T11:03:48.377Z,1023.78
2018-07-21T11:04:48.380Z,1023.77
2018-07-21T11:05:48.384Z,1023.77
2018-07-21T11:06:48.388Z,1023.71
2018-07-21T11:07:48.393Z,1023.75
2018-07-21T11:08:48.399Z,1023.64
2018-07-21T11:09:48.401Z,1023.71
2018-07-21T11:10:48.404Z,1023.73
2018-07-21T11:11:48.412Z,1023.71
2018-07-21T11:12:48.413Z,1023.66
2018-07-21T11:13:48.416Z,1023.67
2018-07-21T11:14:48.420Z,1023.67
2018-07-21T11:15:48.426Z,1023.57
2018-07-21T11:16:48.432Z,1023.54
2018-07-21T11:17:48.433Z,1023.5
2018-07-21T11:18:48.437Z,1023.5
2018-07-21T11:19:48.442Z,1023.61
2018-07-21T11:20:48.444Z,1023.6
2018-07-21T11:21:48.700Z,1023.48
2018-07-21T11:22:48.456Z,1023.48
2018-07-21T11:23:48.457Z,1023.41
2018-07-21T11:24:48.460Z,1023.32
2018-07-21T11:25:48.464Z,1023.28
2018-07-21T11:26:48.469Z,1023.22
2018-07-21T11:27:48.474Z,1023.07
2018-07-21T11:28:48.477Z,1022.97
2018-07-21T11:29:48.482Z,1022.86
2018-07-21T11:30:48.486Z,1022.82
2018-07-21T11:31:48.489Z,1022.75
2018-07-21T11:32:48.501Z,1022.6
2018-07-21T11:33:48.505Z,1022.48
2018-07-21T11:34:48.504Z,1022.41
2018-07-21T11:35:48.634Z,1022.4
2018-07-21T11:36:48.513Z,1022.41
2018-07-21T11:37:48.518Z,1022.43
2018-07-21T11:38:48.522Z,1022.42
2018-07-21T11:39:48.530Z,1022.38
2018-07-21T11:40:48.532Z,1022.29
2018-07-21T11:41:48.539Z,1022.28
2018-07-21T11:42:48.545Z,1022.21
2018-07-21T11:43:48.561Z,1022.15
2018-07-21T11:44:48.556Z,1022.14
2018-07-21T11:45:48.560Z,1022.16
2018-07-21T11:46:48.574Z,1022.16
2018-07-21T11:47:48.572Z,1022.18
2018-07-21T11:48:48.577Z,1022.25
2018-07-21T11:49:48.583Z,1022.2
2018-07-21T11:50:48.589Z,1022.29
2018-07-21T11:51:48.597Z,1022.21
2018-07-21T11:52:48.852Z,1022.19
2018-07-21T11:53:48.607Z,1022.13
2018-07-21T11:54:48.616Z,1022.12
2018-07-21T11:55:48.620Z,1022
2018-07-21T11:56:48.626Z,1021.97
2018-07-21T11:57:48.630Z,1021.94
2018-07-21T11:58:48.637Z,1021.89
2018-07-21T11:59:48.644Z,1021.89
2018-07-21T12:00:48.651Z,1021.87
2018-07-21T12:01:48.715Z,1021.96
2018-07-21T12:02:48.667Z,1022
2018-07-21T12:03:48.670Z,1021.99
2018-07-21T12:04:48.675Z,1022.09
2018-07-21T12:05:48.681Z,1022.08
2018-07-21T12:06:48.689Z,1022.08
2018-07-21T12:07:48.696Z,1022.13
2018-07-21T12:08:48.702Z,1022.1